Raccoon Bend, Texas
Current Conditions -  °F | °C
As of 5:35 AM on Saturday 20 Dec 2014 (Local Time) from K11R Reporting Station
Overcast Overcast  
Wind Chill: 51°   Ceiling: 1800
Heat Index: 51°   Visibility: 10mi
Dew Point: 49°   Wind: 9mph
Humidity: 93%   Direction: 340°NNW
Pressure: 30.17"   Gusts: NA
Location:  29.9944°N, 96.2595°W
Report Text: K11R 201135Z AUTO 34008KT 10SM OVC018 10/09 A3017 RMK AO2 T01030092
Loading
Personal Weather Stations






























Interactive Weather Map New forecast layout! Learn more

10-Day Weather Forecast

Advertisements
Track Severe Weather on mobile